sensor_id;sensor_type;location;lat;lon;timestamp;temperature;humidity
6260;DHT22;3163;51.516;4.000;2023-04-01T00:01:05;12.70;99.90
6260;DHT22;3163;51.516;4.000;2023-04-01T00:03:31;12.70;99.90
6260;DHT22;3163;51.516;4.000;2023-04-01T00:05:59;12.70;99.90
6260;DHT22;3163;51.516;4.000;2023-04-01T00:08:25;12.70;99.90
6260;DHT22;3163;51.516;4.000;2023-04-01T00:10:52;12.70;99.90
6260;DHT22;3163;51.516;4.000;2023-04-01T00:13:18;12.70;99.90
6260;DHT22;3163;51.516;4.000;2023-04-01T00:15:44;12.70;99.90
6260;DHT22;3163;51.516;4.000;2023-04-01T00:18:11;12.70;99.90
6260;DHT22;3163;51.516;4.000;2023-04-01T00:20:37;12.60;99.90
6260;DHT22;3163;51.516;4.000;2023-04-01T00:23:03;12.60;99.90
6260;DHT22;3163;51.516;4.000;2023-04-01T00:25:30;12.60;99.90
6260;DHT22;3163;51.516;4.000;2023-04-01T00:27:56;12.70;99.90
6260;DHT22;3163;51.516;4.000;2023-04-01T00:30:21;12.70;99.90
6260;DHT22;3163;51.516;4.000;2023-04-01T00:32:51;12.70;99.90
6260;DHT22;3163;51.516;4.000;2023-04-01T00:35:17;12.70;99.90
6260;DHT22;3163;51.516;4.000;2023-04-01T00:37:43;12.60;99.90
6260;DHT22;3163;51.516;4.000;2023-04-01T00:40:31;12.70;99.90
6260;DHT22;3163;51.516;4.000;2023-04-01T00:42:57;12.60;99.90
6260;DHT22;3163;51.516;4.000;2023-04-01T00:45:38;12.60;99.90
6260;DHT22;3163;51.516;4.000;2023-04-01T00:48:09;12.60;99.90
6260;DHT22;3163;51.516;4.000;2023-04-01T00:50:37;12.60;99.90
6260;DHT22;3163;51.516;4.000;2023-04-01T00:53:05;12.70;99.90
6260;DHT22;3163;51.516;4.000;2023-04-01T00:55:34;12.60;99.90
6260;DHT22;3163;51.516;4.000;2023-04-01T00:58:03;12.60;99.90
6260;DHT22;3163;51.516;4.000;2023-04-01T01:00:29;12.60;99.90
6260;DHT22;3163;51.516;4.000;2023-04-01T01:02:54;12.60;99.90
6260;DHT22;3163;51.516;4.000;2023-04-01T01:05:27;12.60;99.90
6260;DHT22;3163;51.516;4.000;2023-04-01T01:10:43;12.70;99.90
6260;DHT22;3163;51.516;4.000;2023-04-01T01:13:43;12.70;99.90
6260;DHT22;3163;51.516;4.000;2023-04-01T01:16:24;12.70;99.90
6260;DHT22;3163;51.516;4.000;2023-04-01T01:21:51;12.60;99.90
6260;DHT22;3163;51.516;4.000;2023-04-01T01:26:59;12.60;99.90
6260;DHT22;3163;51.516;4.000;2023-04-01T01:38:05;12.60;99.90
6260;DHT22;3163;51.516;4.000;2023-04-01T01:40:33;12.60;99.90
6260;DHT22;3163;51.516;4.000;2023-04-01T01:43:04;12.60;99.90
6260;DHT22;3163;51.516;4.000;2023-04-01T01:45:32;12.60;99.90
6260;DHT22;3163;51.516;4.000;2023-04-01T01:48:02;12.50;99.90
6260;DHT22;3163;51.516;4.000;2023-04-01T01:50:29;12.40;99.90
6260;DHT22;3163;51.516;4.000;2023-04-01T01:53:06;12.50;99.90
6260;DHT22;3163;51.516;4.000;2023-04-01T01:55:35;12.60;99.90
6260;DHT22;3163;51.516;4.000;2023-04-01T01:58:28;12.50;99.90
6260;DHT22;3163;51.516;4.000;2023-04-01T02:01:00;12.50;99.90
6260;DHT22;3163;51.516;4.000;2023-04-01T02:03:30;12.50;99.90
6260;DHT22;3163;51.516;4.000;2023-04-01T02:05:59;12.50;99.90
6260;DHT22;3163;51.516;4.000;2023-04-01T02:08:36;12.50;99.90
6260;DHT22;3163;51.516;4.000;2023-04-01T02:11:08;12.50;99.90
6260;DHT22;3163;51.516;4.000;2023-04-01T02:16:36;12.50;99.90
6260;DHT22;3163;51.516;4.000;2023-04-01T02:19:05;12.40;99.90
6260;DHT22;3163;51.516;4.000;2023-04-01T02:21:35;12.40;99.90
6260;DHT22;3163;51.516;4.000;2023-04-01T02:24:05;12.50;99.90
6260;DHT22;3163;51.516;4.000;2023-04-01T02:26:34;12.50;99.90
6260;DHT22;3163;51.516;4.000;2023-04-01T02:29:01;12.40;99.90
6260;DHT22;3163;51.516;4.000;2023-04-01T02:31:29;12.40;99.90
6260;DHT22;3163;51.516;4.000;2023-04-01T02:33:56;12.50;99.90
6260;DHT22;3163;51.516;4.000;2023-04-01T02:36:22;12.50;99.90
6260;DHT22;3163;51.516;4.000;2023-04-01T02:38:49;12.40;99.90
6260;DHT22;3163;51.516;4.000;2023-04-01T02:41:16;12.50;99.90
6260;DHT22;3163;51.516;4.000;2023-04-01T02:43:42;12.40;99.90
6260;DHT22;3163;51.516;4.000;2023-04-01T02:46:08;12.50;99.90
6260;DHT22;3163;51.516;4.000;2023-04-01T02:48:33;12.50;99.90
6260;DHT22;3163;51.516;4.000;2023-04-01T02:50:59;12.50;99.90
6260;DHT22;3163;51.516;4.000;2023-04-01T02:53:25;12.40;99.90
6260;DHT22;3163;51.516;4.000;2023-04-01T02:55:51;12.40;99.90
6260;DHT22;3163;51.516;4.000;2023-04-01T02:58:18;12.40;99.90
6260;DHT22;3163;51.516;4.000;2023-04-01T03:00:43;12.40;99.90
6260;DHT22;3163;51.516;4.000;2023-04-01T03:03:09;12.40;99.90
6260;DHT22;3163;51.516;4.000;2023-04-01T03:05:35;12.40;99.90
6260;DHT22;3163;51.516;4.000;2023-04-01T03:08:01;12.40;99.90
6260;DHT22;3163;51.516;4.000;2023-04-01T03:10:27;12.40;99.90
6260;DHT22;3163;51.516;4.000;2023-04-01T03:12:53;12.40;99.90
6260;DHT22;3163;51.516;4.000;2023-04-01T03:15:19;12.40;99.90
6260;DHT22;3163;51.516;4.000;2023-04-01T03:17:45;12.50;99.90
6260;DHT22;3163;51.516;4.000;2023-04-01T03:20:12;12.50;99.90
6260;DHT22;3163;51.516;4.000;2023-04-01T03:22:39;12.50;99.90
6260;DHT22;3163;51.516;4.000;2023-04-01T03:25:05;12.40;99.90
6260;DHT22;3163;51.516;4.000;2023-04-01T03:27:33;12.50;99.90
6260;DHT22;3163;51.516;4.000;2023-04-01T03:29:59;12.50;99.90
6260;DHT22;3163;51.516;4.000;2023-04-01T03:32:25;12.40;99.90
6260;DHT22;3163;51.516;4.000;2023-04-01T03:34:50;12.40;99.90
6260;DHT22;3163;51.516;4.000;2023-04-01T03:37:16;12.30;99.90
6260;DHT22;3163;51.516;4.000;2023-04-01T03:39:41;12.40;99.90
6260;DHT22;3163;51.516;4.000;2023-04-01T03:42:07;12.40;99.90
6260;DHT22;3163;51.516;4.000;2023-04-01T03:44:33;12.30;99.90
6260;DHT22;3163;51.516;4.000;2023-04-01T03:46:59;12.30;99.90
6260;DHT22;3163;51.516;4.000;2023-04-01T03:49:24;12.40;99.90
6260;DHT22;3163;51.516;4.000;2023-04-01T03:51:50;12.30;99.90
6260;DHT22;3163;51.516;4.000;2023-04-01T03:54:15;12.40;99.90
6260;DHT22;3163;51.516;4.000;2023-04-01T03:56:42;12.40;99.90
6260;DHT22;3163;51.516;4.000;2023-04-01T03:59:08;12.30;99.90
6260;DHT22;3163;51.516;4.000;2023-04-01T04:01:34;12.30;99.90
6260;DHT22;3163;51.516;4.000;2023-04-01T04:04:00;12.40;99.90
6260;DHT22;3163;51.516;4.000;2023-04-01T04:06:26;12.40;99.90
6260;DHT22;3163;51.516;4.000;2023-04-01T04:08:52;12.40;99.90
6260;DHT22;3163;51.516;4.000;2023-04-01T04:11:19;12.40;99.90
6260;DHT22;3163;51.516;4.000;2023-04-01T04:13:45;12.40;99.90
6260;DHT22;3163;51.516;4.000;2023-04-01T04:16:13;12.40;99.90
6260;DHT22;3163;51.516;4.000;2023-04-01T04:18:39;12.30;99.90
6260;DHT22;3163;51.516;4.000;2023-04-01T04:21:05;12.40;99.90
6260;DHT22;3163;51.516;4.000;2023-04-01T04:23:30;12.30;99.90
6260;DHT22;3163;51.516;4.000;2023-04-01T04:26:01;12.40;99.90
6260;DHT22;3163;51.516;4.000;2023-04-01T04:28:28;12.30;99.90
6260;DHT22;3163;51.516;4.000;2023-04-01T04:30:54;12.20;99.90
6260;DHT22;3163;51.516;4.000;2023-04-01T04:33:21;12.30;99.90
6260;DHT22;3163;51.516;4.000;2023-04-01T04:35:47;12.30;99.90
6260;DHT22;3163;51.516;4.000;2023-04-01T04:38:13;12.30;99.90
6260;DHT22;3163;51.516;4.000;2023-04-01T04:40:40;12.30;99.90
6260;DHT22;3163;51.516;4.000;2023-04-01T04:43:06;12.30;99.90
6260;DHT22;3163;51.516;4.000;2023-04-01T04:45:32;12.30;99.90
6260;DHT22;3163;51.516;4.000;2023-04-01T04:47:58;12.30;99.90
6260;DHT22;3163;51.516;4.000;2023-04-01T04:50:24;12.40;99.90
6260;DHT22;3163;51.516;4.000;2023-04-01T04:52:51;12.30;99.90
6260;DHT22;3163;51.516;4.000;2023-04-01T04:55:17;12.30;99.90
6260;DHT22;3163;51.516;4.000;2023-04-01T04:57:42;12.30;99.90
6260;DHT22;3163;51.516;4.000;2023-04-01T05:00:08;12.20;99.90
6260;DHT22;3163;51.516;4.000;2023-04-01T05:02:35;12.20;99.90
6260;DHT22;3163;51.516;4.000;2023-04-01T05:05:01;12.20;99.90
6260;DHT22;3163;51.516;4.000;2023-04-01T05:07:27;12.30;99.90
6260;DHT22;3163;51.516;4.000;2023-04-01T05:09:52;12.30;99.90
6260;DHT22;3163;51.516;4.000;2023-04-01T05:12:18;12.30;99.90
6260;DHT22;3163;51.516;4.000;2023-04-01T05:14:43;12.20;99.90
6260;DHT22;3163;51.516;4.000;2023-04-01T05:17:10;12.30;99.90
6260;DHT22;3163;51.516;4.000;2023-04-01T05:19:36;12.30;99.90
6260;DHT22;3163;51.516;4.000;2023-04-01T05:22:02;12.30;99.90
6260;DHT22;3163;51.516;4.000;2023-04-01T05:24:28;12.30;99.90
6260;DHT22;3163;51.516;4.000;2023-04-01T05:26:54;12.20;99.90
6260;DHT22;3163;51.516;4.000;2023-04-01T05:29:21;12.30;99.90
6260;DHT22;3163;51.516;4.000;2023-04-01T05:31:47;12.30;99.90
6260;DHT22;3163;51.516;4.000;2023-04-01T05:34:13;12.30;99.90
6260;DHT22;3163;51.516;4.000;2023-04-01T05:36:39;12.30;99.90
6260;DHT22;3163;51.516;4.000;2023-04-01T05:39:05;12.30;99.90
6260;DHT22;3163;51.516;4.000;2023-04-01T05:41:30;12.30;99.90
6260;DHT22;3163;51.516;4.000;2023-04-01T05:43:56;12.30;99.90
6260;DHT22;3163;51.516;4.000;2023-04-01T05:46:22;12.30;99.90
6260;DHT22;3163;51.516;4.000;2023-04-01T05:48:47;12.30;99.90
6260;DHT22;3163;51.516;4.000;2023-04-01T05:51:14;12.30;99.90
6260;DHT22;3163;51.516;4.000;2023-04-01T05:53:40;12.20;99.90
6260;DHT22;3163;51.516;4.000;2023-04-01T05:56:07;12.30;99.90
6260;DHT22;3163;51.516;4.000;2023-04-01T05:58:35;12.40;99.90
6260;DHT22;3163;51.516;4.000;2023-04-01T06:01:07;12.30;99.90
6260;DHT22;3163;51.516;4.000;2023-04-01T06:03:33;12.40;99.90
6260;DHT22;3163;51.516;4.000;2023-04-01T06:05:59;12.40;99.90
6260;DHT22;3163;51.516;4.000;2023-04-01T06:08:27;12.40;99.90
6260;DHT22;3163;51.516;4.000;2023-04-01T06:16:37;12.50;99.90
6260;DHT22;3163;51.516;4.000;2023-04-01T06:27:53;12.70;99.90
6260;DHT22;3163;51.516;4.000;2023-04-01T06:45:30;12.90;99.90
6260;DHT22;3163;51.516;4.000;2023-04-01T06:48:14;12.90;99.90
6260;DHT22;3163;51.516;4.000;2023-04-01T06:53:42;13.00;99.90
6260;DHT22;3163;51.516;4.000;2023-04-01T06:56:12;13.10;99.90
6260;DHT22;3163;51.516;4.000;2023-04-01T06:58:54;13.10;99.90
6260;DHT22;3163;51.516;4.000;2023-04-01T07:01:26;13.10;99.90
6260;DHT22;3163;51.516;4.000;2023-04-01T07:03:59;13.20;99.90
6260;DHT22;3163;51.516;4.000;2023-04-01T07:06:32;13.20;99.90
6260;DHT22;3163;51.516;4.000;2023-04-01T07:09:04;13.10;99.90
6260;DHT22;3163;51.516;4.000;2023-04-01T07:11:37;13.20;99.90
6260;DHT22;3163;51.516;4.000;2023-04-01T07:14:25;13.20;99.90
6260;DHT22;3163;51.516;4.000;2023-04-01T07:17:14;13.20;99.90
6260;DHT22;3163;51.516;4.000;2023-04-01T07:20:10;13.20;99.90
6260;DHT22;3163;51.516;4.000;2023-04-01T07:22:45;13.20;99.90
6260;DHT22;3163;51.516;4.000;2023-04-01T07:25:41;13.30;99.90
6260;DHT22;3163;51.516;4.000;2023-04-01T07:28:14;13.30;99.90
6260;DHT22;3163;51.516;4.000;2023-04-01T07:31:08;13.30;99.90
6260;DHT22;3163;51.516;4.000;2023-04-01T07:36:42;13.30;99.90
6260;DHT22;3163;51.516;4.000;2023-04-01T07:41:53;13.30;99.90
6260;DHT22;3163;51.516;4.000;2023-04-01T07:44:25;13.40;99.90
6260;DHT22;3163;51.516;4.000;2023-04-01T07:52:23;13.40;99.90
6260;DHT22;3163;51.516;4.000;2023-04-01T07:55:25;13.40;99.90
6260;DHT22;3163;51.516;4.000;2023-04-01T08:03:34;13.40;99.90
6260;DHT22;3163;51.516;4.000;2023-04-01T08:06:30;13.40;99.90
6260;DHT22;3163;51.516;4.000;2023-04-01T08:09:19;13.40;99.90
6260;DHT22;3163;51.516;4.000;2023-04-01T08:14:56;13.40;99.90
6260;DHT22;3163;51.516;4.000;2023-04-01T08:17:47;13.40;99.90
6260;DHT22;3163;51.516;4.000;2023-04-01T08:23:22;13.40;99.90
6260;DHT22;3163;51.516;4.000;2023-04-01T08:26:10;13.40;99.90
6260;DHT22;3163;51.516;4.000;2023-04-01T08:31:39;13.50;99.90
6260;DHT22;3163;51.516;4.000;2023-04-01T08:34:14;13.50;99.90
6260;DHT22;3163;51.516;4.000;2023-04-01T08:36:45;13.40;99.90
6260;DHT22;3163;51.516;4.000;2023-04-01T08:39:18;13.50;99.90
6260;DHT22;3163;51.516;4.000;2023-04-01T08:47:20;13.50;99.90
6260;DHT22;3163;51.516;4.000;2023-04-01T09:03:41;13.50;99.90
6260;DHT22;3163;51.516;4.000;2023-04-01T09:12:19;13.50;99.90
6260;DHT22;3163;51.516;4.000;2023-04-01T09:15:22;13.50;99.90
6260;DHT22;3163;51.516;4.000;2023-04-01T09:26:39;13.50;99.90
6260;DHT22;3163;51.516;4.000;2023-04-01T09:35:10;13.50;99.90
6260;DHT22;3163;51.516;4.000;2023-04-01T09:51:11;13.60;99.90
6260;DHT22;3163;51.516;4.000;2023-04-01T09:53:57;13.50;99.90
6260;DHT22;3163;51.516;4.000;2023-04-01T10:14:01;13.30;99.90
6260;DHT22;3163;51.516;4.000;2023-04-01T10:16:30;13.00;99.90
6260;DHT22;3163;51.516;4.000;2023-04-01T10:21:56;13.50;99.90
6260;DHT22;3163;51.516;4.000;2023-04-01T10:32:51;13.60;99.90
6260;DHT22;3163;51.516;4.000;2023-04-01T11:01:15;13.80;99.90
6260;DHT22;3163;51.516;4.000;2023-04-01T11:04:16;13.70;99.90
6260;DHT22;3163;51.516;4.000;2023-04-01T11:43:41;13.90;99.90
6260;DHT22;3163;51.516;4.000;2023-04-01T11:46:16;13.90;99.90
6260;DHT22;3163;51.516;4.000;2023-04-01T12:19:43;13.90;99.90
6260;DHT22;3163;51.516;4.000;2023-04-01T12:22:38;14.00;99.90
6260;DHT22;3163;51.516;4.000;2023-04-01T12:27:41;13.90;99.90
6260;DHT22;3163;51.516;4.000;2023-04-01T12:30:21;14.00;99.90
6260;DHT22;3163;51.516;4.000;2023-04-01T12:38:50;14.00;99.90
6260;DHT22;3163;51.516;4.000;2023-04-01T12:41:40;14.00;99.90
6260;DHT22;3163;51.516;4.000;2023-04-01T13:08:38;14.00;99.90
6260;DHT22;3163;51.516;4.000;2023-04-01T13:11:13;13.90;99.90
6260;DHT22;3163;51.516;4.000;2023-04-01T13:24:56;14.00;99.90
6260;DHT22;3163;51.516;4.000;2023-04-01T13:32:50;13.80;99.90
6260;DHT22;3163;51.516;4.000;2023-04-01T13:43:35;14.80;99.90
6260;DHT22;3163;51.516;4.000;2023-04-01T14:10:20;13.90;99.90
6260;DHT22;3163;51.516;4.000;2023-04-01T14:27:47;13.80;99.90
6260;DHT22;3163;51.516;4.000;2023-04-01T14:33:01;13.80;99.90
6260;DHT22;3163;51.516;4.000;2023-04-01T14:41:37;13.80;99.90
6260;DHT22;3163;51.516;4.000;2023-04-01T14:44:16;13.90;99.90
6260;DHT22;3163;51.516;4.000;2023-04-01T14:49:50;13.90;99.90
6260;DHT22;3163;51.516;4.000;2023-04-01T14:52:24;13.80;99.90
6260;DHT22;3163;51.516;4.000;2023-04-01T14:54:52;13.90;99.90
6260;DHT22;3163;51.516;4.000;2023-04-01T14:57:29;13.80;99.90
6260;DHT22;3163;51.516;4.000;2023-04-01T15:00:13;13.80;99.90
6260;DHT22;3163;51.516;4.000;2023-04-01T15:10:49;13.80;99.90
6260;DHT22;3163;51.516;4.000;2023-04-01T15:25:19;13.80;99.90
6260;DHT22;3163;51.516;4.000;2023-04-01T15:55:59;13.70;99.90
6260;DHT22;3163;51.516;4.000;2023-04-01T16:04:31;13.60;99.90
6260;DHT22;3163;51.516;4.000;2023-04-01T16:07:02;13.60;99.90
6260;DHT22;3163;51.516;4.000;2023-04-01T16:21:41;13.60;99.90
6260;DHT22;3163;51.516;4.000;2023-04-01T16:29:55;13.50;99.90
6260;DHT22;3163;51.516;4.000;2023-04-01T16:35:23;13.50;99.90
6260;DHT22;3163;51.516;4.000;2023-04-01T16:38:00;13.50;99.90
6260;DHT22;3163;51.516;4.000;2023-04-01T16:40:42;13.40;99.90
6260;DHT22;3163;51.516;4.000;2023-04-01T16:51:34;13.50;99.90
6260;DHT22;3163;51.516;4.000;2023-04-01T16:54:06;13.50;99.90
6260;DHT22;3163;51.516;4.000;2023-04-01T16:57:02;13.50;99.90
6260;DHT22;3163;51.516;4.000;2023-04-01T17:02:31;13.40;99.90
6260;DHT22;3163;51.516;4.000;2023-04-01T17:05:04;13.40;99.90
6260;DHT22;3163;51.516;4.000;2023-04-01T17:07:55;13.50;99.90
6260;DHT22;3163;51.516;4.000;2023-04-01T17:13:59;13.30;99.90
6260;DHT22;3163;51.516;4.000;2023-04-01T17:16:37;13.20;99.90
6260;DHT22;3163;51.516;4.000;2023-04-01T17:24:29;13.30;99.90
6260;DHT22;3163;51.516;4.000;2023-04-01T17:27:13;13.20;99.90
6260;DHT22;3163;51.516;4.000;2023-04-01T17:33:03;13.30;99.90
6260;DHT22;3163;51.516;4.000;2023-04-01T17:51:56;13.20;99.90
6260;DHT22;3163;51.516;4.000;2023-04-01T17:54:50;13.30;99.90
6260;DHT22;3163;51.516;4.000;2023-04-01T18:14:42;13.30;99.90
6260;DHT22;3163;51.516;4.000;2023-04-01T18:25:34;13.20;99.90
6260;DHT22;3163;51.516;4.000;2023-04-01T18:28:16;13.20;99.90
6260;DHT22;3163;51.516;4.000;2023-04-01T18:30:51;13.20;99.90
6260;DHT22;3163;51.516;4.000;2023-04-01T18:33:30;13.20;99.90
6260;DHT22;3163;51.516;4.000;2023-04-01T18:36:53;13.20;99.90
6260;DHT22;3163;51.516;4.000;2023-04-01T18:39:16;13.20;99.90
6260;DHT22;3163;51.516;4.000;2023-04-01T18:42:08;13.20;99.90
6260;DHT22;3163;51.516;4.000;2023-04-01T18:44:50;13.10;99.90
6260;DHT22;3163;51.516;4.000;2023-04-01T18:52:40;12.90;99.90
6260;DHT22;3163;51.516;4.000;2023-04-01T18:55:29;12.80;99.90
6260;DHT22;3163;51.516;4.000;2023-04-01T19:05:53;12.70;99.90
6260;DHT22;3163;51.516;4.000;2023-04-01T19:11:39;12.60;99.90
6260;DHT22;3163;51.516;4.000;2023-04-01T19:17:02;12.60;99.90
6260;DHT22;3163;51.516;4.000;2023-04-01T19:27:32;12.40;99.90
6260;DHT22;3163;51.516;4.000;2023-04-01T19:30:26;12.40;99.90
6260;DHT22;3163;51.516;4.000;2023-04-01T19:46:44;12.30;99.90
6260;DHT22;3163;51.516;4.000;2023-04-01T19:49:36;12.30;99.90
6260;DHT22;3163;51.516;4.000;2023-04-01T19:52:29;12.30;99.90
6260;DHT22;3163;51.516;4.000;2023-04-01T20:09:07;12.20;99.90
6260;DHT22;3163;51.516;4.000;2023-04-01T20:14:51;12.20;99.90
6260;DHT22;3163;51.516;4.000;2023-04-01T20:17:32;12.20;99.90
6260;DHT22;3163;51.516;4.000;2023-04-01T20:25:17;12.20;99.90
6260;DHT22;3163;51.516;4.000;2023-04-01T20:27:51;12.20;99.90
6260;DHT22;3163;51.516;4.000;2023-04-01T20:33:28;12.20;99.90
6260;DHT22;3163;51.516;4.000;2023-04-01T20:52:41;12.10;99.90
6260;DHT22;3163;51.516;4.000;2023-04-01T20:58:19;12.10;99.90
6260;DHT22;3163;51.516;4.000;2023-04-01T21:01:03;12.10;99.90
6260;DHT22;3163;51.516;4.000;2023-04-01T21:14:53;12.10;99.90
6260;DHT22;3163;51.516;4.000;2023-04-01T21:20:14;12.10;99.90
6260;DHT22;3163;51.516;4.000;2023-04-01T21:43:05;12.00;99.90
6260;DHT22;3163;51.516;4.000;2023-04-01T21:48:53;12.00;99.90
6260;DHT22;3163;51.516;4.000;2023-04-01T21:57:45;12.00;99.90
6260;DHT22;3163;51.516;4.000;2023-04-01T22:06:08;12.00;99.90
6260;DHT22;3163;51.516;4.000;2023-04-01T22:12:02;12.00;99.90
6260;DHT22;3163;51.516;4.000;2023-04-01T22:17:45;11.90;99.90
6260;DHT22;3163;51.516;4.000;2023-04-01T22:20:40;11.90;99.90
6260;DHT22;3163;51.516;4.000;2023-04-01T22:31:32;11.90;99.90
6260;DHT22;3163;51.516;4.000;2023-04-01T22:42:52;11.90;99.90
6260;DHT22;3163;51.516;4.000;2023-04-01T22:48:01;11.90;99.90
6260;DHT22;3163;51.516;4.000;2023-04-01T22:55:40;11.90;99.90
6260;DHT22;3163;51.516;4.000;2023-04-01T22:58:21;11.90;99.90
6260;DHT22;3163;51.516;4.000;2023-04-01T23:00:55;11.90;99.90
6260;DHT22;3163;51.516;4.000;2023-04-01T23:03:31;11.80;99.90
6260;DHT22;3163;51.516;4.000;2023-04-01T23:06:00;11.80;99.90
6260;DHT22;3163;51.516;4.000;2023-04-01T23:09:02;11.80;99.90
6260;DHT22;3163;51.516;4.000;2023-04-01T23:11:49;11.80;99.90
6260;DHT22;3163;51.516;4.000;2023-04-01T23:14:27;11.90;99.90
6260;DHT22;3163;51.516;4.000;2023-04-01T23:17:31;11.80;99.90
6260;DHT22;3163;51.516;4.000;2023-04-01T23:20:31;11.80;99.90
6260;DHT22;3163;51.516;4.000;2023-04-01T23:31:02;11.80;99.90
6260;DHT22;3163;51.516;4.000;2023-04-01T23:33:30;11.80;99.90
6260;DHT22;3163;51.516;4.000;2023-04-01T23:36:11;11.80;99.90
6260;DHT22;3163;51.516;4.000;2023-04-01T23:48:36;11.70;99.90
6260;DHT22;3163;51.516;4.000;2023-04-01T23:51:03;11.70;99.90
6260;DHT22;3163;51.516;4.000;2023-04-01T23:53:43;11.70;99.90
6260;DHT22;3163;51.516;4.000;2023-04-01T23:56:09;11.70;99.90
6260;DHT22;3163;51.516;4.000;2023-04-01T23:58:48;11.70;99.90
